الصفحة الرئيسية
METAR-TAF:

METAR-TAF

مطار :

فالديز, ألاسكا, الولايات المتحدة

دائرة عرض: 61-08N, خط طول: 146-16W, ارتفاع: 37 متر

مراقبة الطقس الحالي

تاريخ ووقت الإصدار 6 دقيقة قبل الساعة 17:56UTC
رياح هادئة
درجة الحرارة -9°درجة مئوية
الرطوبة 57%
ضغط
الرؤية: 16.1 كم
غيوم قليلة على ارتفاع 4500 قدم
ملبد بالغيوم على ارتفاع 5500 قدم

METAR: PAVD 041756Z 00000KT 10SM FEW045 OVC055 M09/M16 RMK AO2 SLPNO VCSH SE S A3017 T10891156 11083 21111 $

زمن: 09:02 (18:02 UTC)

توقعات

تاريخ ووقت الإصدار 32 دقيقة قبل الساعة 17:30UTC
التوقعات صالحة من04 الساعة 18 UTC إلى 05 الساعة 18 UTC
ريح 3 عقدةمن اتجاهات متغيرة
الرؤية: 10 كم
ملبد بالغيوم على ارتفاع 6000 قدم
من 05 الساعة 0300 UTC
ريح 3 عقدةمن اتجاهات متغيرة
الرؤية: 6.4 كم
ملبد بالغيوم على ارتفاع 2500 قدم
ثلوج خفيفة, غشاء,

TAF: PAVD 041730Z 0418/0518 VRB03KT P6SM OVC060 FM050300 VRB03KT 4SM -SN BR OVC025

أرصاد الطقس والتوقعات من أكثر من 4000 مطار (تقارير الطقس للمطار METAR والتنبؤ بالطقس بالمطارTAF).

المحطات المتاحة هي النقط الصفراء والحمراء على الخريطة.

حرك المؤشر فوق النقطة لمعرفة اسم المحطة.

ثم انقر لمعرفة أرصاد وتوقعات الطقس.

لتغيير الخارطة: اضغط على الأزرار الخضراء مع رمز الصليب الأسود للتكبير. على الزر الأخضر مع شرطة للتصغير، أو على الأسهم الخضراء للخرائط المجاورة.


METAR-TAF: